Time;durP1;ratioP1;P1;durP2;ratioP2;P2;SDS_P1;SDS_P2;PMS_P1;PMS_P2;Temp;Humidity;BMP_temperature;BMP_pressure;BME280_temperature;BME280_humidity;BME280_pressure;Samples;Min_cycle;Max_cycle;Signal;HPM_P1;HPM_P2
2022/05/18 00:00:53;;;;;;;13.67;12.67;;;;;;;;;;5066714;28;24468;-46
2022/05/18 00:03:20;;;;;;;13.67;12.47;;;;;;;;;;5079702;28;24505;-46
2022/05/18 00:05:46;;;;;;;14.30;13.20;;;;;;;;;;5069026;28;24441;-46
2022/05/18 00:08:11;;;;;;;14.23;13.03;;;;;;;;;;5076821;28;24419;-46
2022/05/18 00:10:38;;;;;;;13.70;12.70;;;;;;;;;;5064798;28;24476;-45
2022/05/18 00:13:03;;;;;;;14.18;12.98;;;;;;;;;;5069125;28;24792;-45
2022/05/18 00:15:29;;;;;;;14.15;12.98;;;;;;;;;;5075405;28;24415;-45
2022/05/18 00:17:55;;;;;;;14.25;13.15;;;;;;;;;;5080177;28;24410;-44
2022/05/18 00:20:20;;;;;;;14.37;13.27;;;;;;;;;;5070480;28;25516;-46
2022/05/18 00:22:47;;;;;;;14.00;12.90;;;;;;;;;;5077022;28;24429;-45
2022/05/18 00:25:12;;;;;;;14.57;13.48;;;;;;;;;;5073197;28;24434;-45
2022/05/18 00:27:37;;;;;;;13.77;12.77;;;;;;;;;;5077529;28;24468;-45
2022/05/18 00:30:03;;;;;;;15.68;14.27;;;;;;;;;;5067981;28;24537;-45
2022/05/18 00:32:28;;;;;;;15.20;14.00;;;;;;;;;;5070833;28;24504;-46
2022/05/18 00:34:53;;;;;;;14.75;13.65;;;;;;;;;;5067816;28;24418;-45
2022/05/18 00:37:18;;;;;;;14.43;13.18;;;;;;;;;;5076381;28;24419;-45
2022/05/18 00:39:44;;;;;;;14.10;12.93;;;;;;;;;;5072492;28;24425;-46
2022/05/18 00:42:19;;;;;;;14.45;13.25;;;;;;;;;;5064345;28;24995;-45
2022/05/18 00:44:44;;;;;;;14.98;13.77;;;;;;;;;;5071300;28;24434;-45
2022/05/18 00:47:09;;;;;;;15.33;14.03;;;;;;;;;;5061678;28;24816;-45
2022/05/18 00:49:34;;;;;;;14.70;13.57;;;;;;;;;;5070021;28;25517;-45
2022/05/18 00:51:59;;;;;;;13.80;12.80;;;;;;;;;;5070395;28;24989;-45
2022/05/18 00:54:26;;;;;;;14.88;13.77;;;;;;;;;;5075276;28;24402;-45
2022/05/18 00:57:09;;;;;;;15.30;14.10;;;;;;;;;;5078020;28;24479;-45
2022/05/18 00:59:39;;;;;;;14.98;13.88;;;;;;;;;;5072025;28;24949;-45
2022/05/18 01:02:05;;;;;;;16.20;14.90;;;;;;;;;;5068075;28;24441;-45
2022/05/18 01:04:30;;;;;;;14.73;13.52;;;;;;;;;;5067884;28;24421;-46
2022/05/18 01:07:04;;;;;;;15.18;13.98;;;;;;;;;;5081718;28;24789;-46
2022/05/18 01:09:32;;;;;;;15.70;14.40;;;;;;;;;;5076918;28;24508;-46
2022/05/18 01:11:57;;;;;;;15.60;14.32;;;;;;;;;;5072249;28;24429;-46
2022/05/18 01:14:25;;;;;;;14.60;13.50;;;;;;;;;;5075307;28;24656;-46
2022/05/18 01:16:51;;;;;;;15.55;14.35;;;;;;;;;;5060138;28;24869;-46
2022/05/18 01:19:25;;;;;;;15.60;14.40;;;;;;;;;;5077253;28;25329;-46
2022/05/18 01:22:11;;;;;;;15.47;14.30;;;;;;;;;;5085019;28;24587;-46
2022/05/18 01:24:40;;;;;;;15.32;14.13;;;;;;;;;;5042279;28;24427;-45
2022/05/18 01:27:05;;;;;;;15.00;13.90;;;;;;;;;;5072809;28;25042;-45
2022/05/18 01:29:31;;;;;;;16.27;14.97;;;;;;;;;;5068402;28;24419;-44
2022/05/18 01:31:58;;;;;;;15.15;13.95;;;;;;;;;;5072437;28;24500;-45
2022/05/18 01:34:25;;;;;;;16.08;14.57;;;;;;;;;;5072614;28;24413;-45
2022/05/18 01:36:51;;;;;;;15.75;14.45;;;;;;;;;;5069152;28;24429;-46
2022/05/18 01:39:21;;;;;;;16.55;15.25;;;;;;;;;;5081041;28;24415;-46
2022/05/18 01:41:52;;;;;;;15.70;14.30;;;;;;;;;;5082814;28;24983;-45
2022/05/18 01:44:17;;;;;;;16.00;14.70;;;;;;;;;;5066254;28;24426;-45
2022/05/18 01:46:43;;;;;;;15.90;14.70;;;;;;;;;;5064100;28;24413;-46
2022/05/18 01:49:08;;;;;;;14.02;13.02;;;;;;;;;;5068329;28;24527;-46
2022/05/18 01:51:35;;;;;;;15.32;14.20;;;;;;;;;;5064530;28;24426;-46
2022/05/18 01:54:00;;;;;;;16.38;15.07;;;;;;;;;;5057377;28;24518;-46
2022/05/18 01:56:26;;;;;;;14.33;13.33;;;;;;;;;;5062537;28;25043;-46
2022/05/18 01:58:51;;;;;;;14.40;13.40;;;;;;;;;;5064125;28;24510;-46
2022/05/18 02:01:16;;;;;;;14.50;13.40;;;;;;;;;;5067431;28;24765;-46
2022/05/18 02:03:42;;;;;;;15.70;14.60;;;;;;;;;;5061773;28;24466;-46
2022/05/18 02:06:07;;;;;;;15.13;14.03;;;;;;;;;;5057424;28;25000;-46
2022/05/18 02:08:32;;;;;;;16.10;14.80;;;;;;;;;;5059027;28;24514;-46
2022/05/18 02:10:57;;;;;;;15.50;14.23;;;;;;;;;;5052227;28;24491;-46
2022/05/18 02:13:22;;;;;;;16.42;15.02;;;;;;;;;;5065453;28;24557;-46
2022/05/18 02:15:48;;;;;;;17.30;15.90;;;;;;;;;;5074632;28;24494;-46
2022/05/18 02:18:13;;;;;;;18.20;16.50;;;;;;;;;;5064316;28;24862;-47
2022/05/18 02:20:38;;;;;;;17.40;15.80;;;;;;;;;;5063669;28;24611;-46
2022/05/18 02:23:03;;;;;;;15.83;14.53;;;;;;;;;;5061654;28;24505;-45
2022/05/18 02:25:30;;;;;;;15.70;14.20;;;;;;;;;;5064426;28;25118;-45
2022/05/18 02:27:55;;;;;;;15.80;14.60;;;;;;;;;;5059402;28;24997;-45
2022/05/18 02:30:21;;;;;;;15.50;14.40;;;;;;;;;;5065242;28;25003;-45
2022/05/18 02:32:46;;;;;;;15.53;14.33;;;;;;;;;;5061541;28;24476;-47
2022/05/18 02:35:11;;;;;;;15.77;14.57;;;;;;;;;;5064373;28;24514;-45
2022/05/18 02:37:37;;;;;;;16.55;15.15;;;;;;;;;;5059263;28;24461;-45
2022/05/18 02:40:02;;;;;;;16.90;15.57;;;;;;;;;;5069104;28;25007;-45
2022/05/18 02:42:28;;;;;;;15.37;14.07;;;;;;;;;;5061643;28;24522;-44
2022/05/18 02:44:54;;;;;;;15.68;14.48;;;;;;;;;;5054622;28;24426;-45
2022/05/18 02:47:20;;;;;;;15.60;14.40;;;;;;;;;;5067686;28;24430;-45
2022/05/18 02:49:45;;;;;;;15.25;14.15;;;;;;;;;;5064177;28;24449;-45
2022/05/18 02:52:10;;;;;;;14.67;13.57;;;;;;;;;;5066595;28;24457;-44
2022/05/18 02:57:19;;;;;;;16.80;15.20;;;;;;;;;;5052772;28;25014;-45
2022/05/18 02:59:45;;;;;;;15.60;14.30;;;;;;;;;;5047488;28;24431;-44
2022/05/18 03:02:10;;;;;;;15.80;14.40;;;;;;;;;;5053220;28;24447;-45
2022/05/18 03:04:36;;;;;;;15.10;13.90;;;;;;;;;;5059442;28;25087;-45
2022/05/18 03:07:01;;;;;;;15.60;14.30;;;;;;;;;;5064218;28;24430;-45
2022/05/18 03:09:26;;;;;;;15.50;14.30;;;;;;;;;;5066495;28;24881;-45
2022/05/18 03:11:51;;;;;;;14.97;13.77;;;;;;;;;;5047526;28;24996;-45
2022/05/18 03:14:17;;;;;;;15.05;13.82;;;;;;;;;;5068751;28;24434;-45
2022/05/18 03:16:43;;;;;;;16.42;15.13;;;;;;;;;;5052012;28;24577;-45
2022/05/18 03:19:09;;;;;;;15.60;14.40;;;;;;;;;;5062184;28;24460;-45
2022/05/18 03:24:18;;;;;;;15.70;14.30;;;;;;;;;;5071110;28;24419;-45
2022/05/18 03:26:44;;;;;;;15.57;14.27;;;;;;;;;;5061636;28;24457;-46
2022/05/18 03:29:09;;;;;;;15.93;14.52;;;;;;;;;;5058172;28;24460;-45
2022/05/18 03:31:34;;;;;;;15.70;14.50;;;;;;;;;;5061236;28;25019;-45
2022/05/18 03:33:59;;;;;;;15.57;13.98;;;;;;;;;;5061610;28;24508;-45
2022/05/18 03:36:25;;;;;;;14.75;13.50;;;;;;;;;;5065171;28;24427;-45
2022/05/18 03:38:50;;;;;;;15.60;14.30;;;;;;;;;;5060539;28;24956;-45
2022/05/18 03:41:16;;;;;;;15.93;14.63;;;;;;;;;;5057257;28;24419;-46
2022/05/18 03:43:42;;;;;;;15.55;14.38;;;;;;;;;;5072894;28;25091;-45
2022/05/18 03:46:07;;;;;;;14.40;13.40;;;;;;;;;;5062971;28;24525;-46
2022/05/18 03:48:33;;;;;;;15.90;14.50;;;;;;;;;;5063544;28;24980;-45
2022/05/18 03:50:59;;;;;;;15.43;14.00;;;;;;;;;;5056615;28;24519;-46
2022/05/18 03:53:25;;;;;;;14.93;13.73;;;;;;;;;;5061107;28;24439;-45
2022/05/18 03:55:50;;;;;;;14.80;13.60;;;;;;;;;;5061985;28;24427;-45
2022/05/18 03:58:15;;;;;;;14.83;13.63;;;;;;;;;;5065305;28;24506;-45
2022/05/18 04:00:41;;;;;;;14.33;13.13;;;;;;;;;;5062956;28;24815;-44
2022/05/18 04:03:07;;;;;;;13.60;12.57;;;;;;;;;;5057109;28;24994;-46
2022/05/18 04:05:33;;;;;;;13.20;12.20;;;;;;;;;;5064422;28;24454;-45
2022/05/18 04:07:58;;;;;;;14.37;13.10;;;;;;;;;;5061208;28;25020;-46
2022/05/18 04:10:23;;;;;;;13.20;12.20;;;;;;;;;;5060287;28;24427;-46
2022/05/18 04:12:48;;;;;;;12.87;11.90;;;;;;;;;;5055388;28;24418;-44
2022/05/18 04:15:16;;;;;;;12.73;11.83;;;;;;;;;;5062803;28;24424;-45
2022/05/18 04:17:41;;;;;;;12.27;11.27;;;;;;;;;;5052405;28;24609;-45
2022/05/18 04:20:07;;;;;;;12.43;11.43;;;;;;;;;;5061634;28;24454;-45
2022/05/18 04:22:32;;;;;;;12.13;11.17;;;;;;;;;;5055569;28;25004;-44
2022/05/18 04:25:01;;;;;;;12.43;11.43;;;;;;;;;;5057671;28;24433;-45
2022/05/18 04:27:31;;;;;;;12.25;11.25;;;;;;;;;;5060029;28;24450;-45
2022/05/18 04:29:56;;;;;;;12.50;11.30;;;;;;;;;;5047555;28;24451;-45
2022/05/18 04:32:21;;;;;;;12.10;11.10;;;;;;;;;;5052314;28;24434;-45
2022/05/18 04:34:48;;;;;;;12.50;11.50;;;;;;;;;;5051972;28;24533;-45
2022/05/18 04:37:13;;;;;;;12.40;11.40;;;;;;;;;;5061589;28;24498;-45
2022/05/18 04:39:38;;;;;;;13.10;11.90;;;;;;;;;;5066167;28;24960;-45
2022/05/18 04:42:04;;;;;;;11.50;10.60;;;;;;;;;;5059834;28;24443;-45
2022/05/18 04:44:29;;;;;;;10.70;9.80;;;;;;;;;;5054960;28;24454;-45
2022/05/18 04:46:55;;;;;;;10.63;9.82;;;;;;;;;;5061882;28;24518;-45
2022/05/18 04:49:20;;;;;;;10.32;9.63;;;;;;;;;;5054371;28;24407;-45
2022/05/18 04:51:45;;;;;;;10.00;9.20;;;;;;;;;;5061447;28;24471;-46
2022/05/18 04:54:10;;;;;;;9.98;9.13;;;;;;;;;;5058668;28;24428;-46
2022/05/18 04:56:35;;;;;;;9.77;8.98;;;;;;;;;;5055450;28;24419;-46
2022/05/18 04:59:01;;;;;;;10.13;9.32;;;;;;;;;;5064534;28;24968;-46
2022/05/18 05:01:26;;;;;;;9.20;8.50;;;;;;;;;;5052258;28;24631;-46
2022/05/18 05:03:51;;;;;;;9.83;9.03;;;;;;;;;;5059035;28;24426;-47
2022/05/18 05:06:16;;;;;;;9.02;8.30;;;;;;;;;;5069295;28;24956;-46
2022/05/18 05:08:42;;;;;;;9.38;8.75;;;;;;;;;;5073443;28;24968;-46
2022/05/18 05:11:07;;;;;;;9.23;8.52;;;;;;;;;;5078843;28;24485;-46
2022/05/18 05:13:33;;;;;;;9.77;9.07;;;;;;;;;;5060356;28;24481;-45
2022/05/18 05:16:03;;;;;;;8.50;7.90;;;;;;;;;;5056397;28;24468;-45
2022/05/18 05:18:29;;;;;;;8.23;7.72;;;;;;;;;;5053656;28;24426;-45
2022/05/18 05:20:54;;;;;;;8.70;8.10;;;;;;;;;;5070840;28;24871;-45
2022/05/18 05:23:20;;;;;;;9.10;8.40;;;;;;;;;;5068368;28;24781;-45
2022/05/18 05:25:46;;;;;;;8.65;8.02;;;;;;;;;;5050427;28;24450;-45
2022/05/18 05:28:11;;;;;;;8.77;8.07;;;;;;;;;;5069090;28;24868;-46
2022/05/18 05:30:36;;;;;;;9.73;8.80;;;;;;;;;;5070713;28;24503;-46
2022/05/18 05:33:01;;;;;;;8.33;7.73;;;;;;;;;;5069467;28;24411;-46
2022/05/18 05:35:27;;;;;;;8.60;7.90;;;;;;;;;;5069023;28;24391;-46
2022/05/18 05:37:52;;;;;;;8.00;7.40;;;;;;;;;;5069319;28;24394;-46
2022/05/18 05:40:17;;;;;;;7.88;7.28;;;;;;;;;;5069386;28;24464;-46
2022/05/18 05:42:42;;;;;;;7.90;7.30;;;;;;;;;;5069777;28;24522;-46
2022/05/18 05:45:08;;;;;;;8.50;7.90;;;;;;;;;;5069101;28;24383;-46
2022/05/18 05:47:33;;;;;;;7.53;7.03;;;;;;;;;;5069125;28;24426;-46
2022/05/18 05:49:58;;;;;;;8.75;8.15;;;;;;;;;;5069373;28;24953;-46
2022/05/18 05:52:24;;;;;;;9.03;8.33;;;;;;;;;;5068201;28;24461;-46
2022/05/18 05:54:49;;;;;;;8.68;7.97;;;;;;;;;;5068670;28;24387;-46
2022/05/18 05:57:14;;;;;;;8.87;8.27;;;;;;;;;;5068757;28;25048;-46
2022/05/18 05:59:40;;;;;;;9.00;8.40;;;;;;;;;;5066458;28;24994;-47
2022/05/18 06:02:07;;;;;;;9.70;8.90;;;;;;;;;;5052662;28;24540;-46
2022/05/18 06:04:33;;;;;;;8.40;7.70;;;;;;;;;;5059584;28;24464;-46
2022/05/18 06:06:58;;;;;;;9.30;8.70;;;;;;;;;;5059880;28;25298;-45
2022/05/18 06:09:24;;;;;;;8.60;7.90;;;;;;;;;;5061628;28;24418;-47
2022/05/18 06:11:50;;;;;;;8.88;8.18;;;;;;;;;;5065240;28;24828;-46
2022/05/18 06:14:15;;;;;;;9.45;8.55;;;;;;;;;;5056349;28;24485;-46
2022/05/18 06:16:41;;;;;;;9.33;8.57;;;;;;;;;;5063659;28;24421;-46
2022/05/18 06:19:06;;;;;;;9.27;8.57;;;;;;;;;;5055975;28;24402;-46
2022/05/18 06:21:32;;;;;;;9.57;8.87;;;;;;;;;;5079392;28;24426;-46
2022/05/18 06:23:57;;;;;;;9.33;8.53;;;;;;;;;;5077434;28;24468;-45
2022/05/18 06:26:24;;;;;;;9.20;8.50;;;;;;;;;;5068083;28;24405;-46
2022/05/18 06:28:49;;;;;;;8.77;7.97;;;;;;;;;;5053940;28;24523;-46
2022/05/18 06:31:15;;;;;;;8.70;8.00;;;;;;;;;;5067175;28;24529;-46
2022/05/18 06:33:40;;;;;;;9.10;8.40;;;;;;;;;;5055330;28;24493;-46
2022/05/18 06:36:05;;;;;;;8.13;7.43;;;;;;;;;;5070011;28;24943;-46
2022/05/18 06:38:31;;;;;;;7.70;7.00;;;;;;;;;;5064072;28;24399;-46
2022/05/18 06:43:40;;;;;;;7.63;7.03;;;;;;;;;;5067537;28;24494;-46
2022/05/18 06:46:06;;;;;;;9.33;8.53;;;;;;;;;;5067750;28;24478;-46
2022/05/18 06:48:31;;;;;;;9.07;8.37;;;;;;;;;;5067957;28;24417;-46
2022/05/18 06:50:56;;;;;;;9.52;8.73;;;;;;;;;;5067424;28;24395;-45
2022/05/18 06:53:21;;;;;;;8.80;8.00;;;;;;;;;;5069309;28;24995;-46
2022/05/18 06:55:47;;;;;;;9.00;8.20;;;;;;;;;;5067911;28;24379;-46
2022/05/18 06:58:13;;;;;;;9.17;8.47;;;;;;;;;;5067365;28;24475;-46
2022/05/18 07:00:38;;;;;;;8.90;8.20;;;;;;;;;;5067433;28;24387;-46
2022/05/18 07:03:03;;;;;;;9.40;8.50;;;;;;;;;;5068084;28;24956;-46
2022/05/18 07:05:28;;;;;;;7.80;7.20;;;;;;;;;;5067674;28;24422;-46
2022/05/18 07:07:53;;;;;;;8.95;8.20;;;;;;;;;;5067782;28;24410;-46
2022/05/18 07:10:18;;;;;;;9.70;8.90;;;;;;;;;;5068230;28;24885;-46
2022/05/18 07:12:43;;;;;;;8.40;7.70;;;;;;;;;;5067071;28;24518;-46
2022/05/18 07:15:09;;;;;;;9.18;8.38;;;;;;;;;;5073652;28;24418;-46
2022/05/18 07:17:35;;;;;;;9.07;8.37;;;;;;;;;;5087782;28;24866;-46
2022/05/18 07:20:00;;;;;;;8.80;8.00;;;;;;;;;;5087348;28;24973;-46
2022/05/18 07:22:25;;;;;;;9.40;8.50;;;;;;;;;;5087587;28;24704;-46
2022/05/18 07:24:50;;;;;;;10.18;9.38;;;;;;;;;;5085174;28;24783;-46
2022/05/18 07:27:16;;;;;;;10.30;9.30;;;;;;;;;;5082869;28;24413;-46
2022/05/18 07:29:41;;;;;;;9.57;8.77;;;;;;;;;;5066867;28;24398;-47
2022/05/18 07:32:12;;;;;;;10.38;9.45;;;;;;;;;;5066727;28;24749;-46
2022/05/18 07:34:37;;;;;;;10.30;9.40;;;;;;;;;;5067186;28;24406;-46
2022/05/18 07:37:02;;;;;;;9.73;8.97;;;;;;;;;;5066702;28;24557;-45
2022/05/18 07:39:30;;;;;;;9.10;8.40;;;;;;;;;;5067294;28;24391;-46
2022/05/18 07:41:56;;;;;;;9.82;9.02;;;;;;;;;;5067370;28;24393;-46
2022/05/18 07:44:21;;;;;;;9.67;8.67;;;;;;;;;;5066866;28;24850;-46
2022/05/18 07:46:47;;;;;;;8.27;7.57;;;;;;;;;;5066492;28;24427;-46
2022/05/18 07:49:12;;;;;;;8.57;7.77;;;;;;;;;;5065385;28;24408;-45
2022/05/18 07:51:38;;;;;;;9.58;8.78;;;;;;;;;;5066744;28;24474;-46
2022/05/18 07:54:03;;;;;;;8.80;8.20;;;;;;;;;;5066332;28;24442;-46
2022/05/18 07:56:28;;;;;;;9.20;8.20;;;;;;;;;;5065885;28;24796;-46
2022/05/18 07:58:54;;;;;;;8.57;7.80;;;;;;;;;;5067647;28;24409;-45
2022/05/18 08:01:19;;;;;;;8.70;7.97;;;;;;;;;;5066829;28;24383;-45
2022/05/18 08:03:44;;;;;;;9.48;8.50;;;;;;;;;;5066146;28;24434;-45
2022/05/18 08:06:10;;;;;;;9.77;8.87;;;;;;;;;;5066320;28;24399;-46
2022/05/18 08:08:35;;;;;;;9.70;8.70;;;;;;;;;;5064272;28;24459;-46
2022/05/18 08:16:30;;;;;;;10.45;9.55;;;;;;;;;;5066378;28;24741;-46
2022/05/18 08:18:55;;;;;;;9.57;8.77;;;;;;;;;;5068688;28;24461;-46
2022/05/18 08:21:20;;;;;;;8.80;8.00;;;;;;;;;;5086492;28;24869;-46
2022/05/18 08:23:46;;;;;;;8.63;7.93;;;;;;;;;;5086194;28;24378;-46
2022/05/18 08:26:11;;;;;;;8.20;7.50;;;;;;;;;;5084128;28;25061;-46
2022/05/18 08:28:37;;;;;;;9.20;8.30;;;;;;;;;;5066467;28;24446;-46
2022/05/18 08:31:03;;;;;;;8.70;8.00;;;;;;;;;;5073437;28;24618;-46
2022/05/18 08:33:31;;;;;;;9.27;8.50;;;;;;;;;;5086628;28;24537;-46
2022/05/18 08:35:56;;;;;;;9.35;8.30;;;;;;;;;;5086236;28;24394;-46
2022/05/18 08:38:22;;;;;;;8.65;7.95;;;;;;;;;;5082782;28;24461;-46
2022/05/18 08:40:49;;;;;;;8.60;7.90;;;;;;;;;;5086350;28;24423;-46
2022/05/18 08:43:20;;;;;;;10.20;9.40;;;;;;;;;;5090321;28;24402;-46
2022/05/18 08:45:48;;;;;;;9.40;8.50;;;;;;;;;;5090387;28;24400;-46
2022/05/18 08:48:19;;;;;;;9.00;8.20;;;;;;;;;;5090612;28;24402;-46
2022/05/18 08:50:44;;;;;;;9.13;8.33;;;;;;;;;;5085290;28;24425;-46
2022/05/18 08:53:17;;;;;;;8.73;8.03;;;;;;;;;;5090409;28;25050;-46
2022/05/18 08:55:45;;;;;;;8.98;8.27;;;;;;;;;;5090175;28;24693;-46
2022/05/18 08:58:17;;;;;;;9.30;8.40;;;;;;;;;;5090198;28;24937;-46
2022/05/18 09:00:45;;;;;;;9.40;8.50;;;;;;;;;;5078583;28;24426;-46
2022/05/18 09:03:15;;;;;;;9.32;8.52;;;;;;;;;;5069823;28;24991;-45
2022/05/18 09:05:42;;;;;;;8.57;7.90;;;;;;;;;;5069453;28;24398;-46
2022/05/18 09:08:28;;;;;;;8.13;7.43;;;;;;;;;;5069467;28;24742;-46
2022/05/18 09:10:53;;;;;;;8.20;7.60;;;;;;;;;;5069701;28;24426;-46
2022/05/18 09:13:19;;;;;;;8.70;7.90;;;;;;;;;;5067681;28;24407;-46
2022/05/18 09:16:02;;;;;;;10.20;9.30;;;;;;;;;;5064586;28;24498;-44
2022/05/18 09:18:36;;;;;;;8.63;7.93;;;;;;;;;;5067126;28;24385;-44
2022/05/18 09:21:23;;;;;;;8.00;7.20;;;;;;;;;;5067105;28;24915;-44
2022/05/18 09:24:08;;;;;;;8.20;7.60;;;;;;;;;;5068703;28;24398;-44
2022/05/18 09:26:50;;;;;;;9.40;8.70;;;;;;;;;;5068349;28;24487;-44
2022/05/18 09:29:30;;;;;;;9.63;8.73;;;;;;;;;;5068890;28;24406;-44
2022/05/18 09:32:02;;;;;;;8.80;8.00;;;;;;;;;;5083457;28;24986;-44
2022/05/18 09:34:37;;;;;;;8.60;7.70;;;;;;;;;;5089744;28;24459;-44
2022/05/18 09:37:06;;;;;;;8.20;7.60;;;;;;;;;;5089721;28;24481;-44
2022/05/18 09:39:35;;;;;;;8.32;7.63;;;;;;;;;;5089248;28;24945;-44
2022/05/18 09:42:10;;;;;;;7.20;6.50;;;;;;;;;;5075273;28;24449;-44
2022/05/18 09:44:46;;;;;;;6.70;6.20;;;;;;;;;;5068932;28;24452;-45
2022/05/18 09:47:14;;;;;;;6.22;5.72;;;;;;;;;;5068789;28;24996;-46
2022/05/18 09:49:51;;;;;;;6.90;6.30;;;;;;;;;;5069014;28;24379;-45
2022/05/18 09:52:18;;;;;;;6.60;6.00;;;;;;;;;;5068136;28;24564;-45
2022/05/18 09:54:43;;;;;;;6.80;6.10;;;;;;;;;;5067889;28;24496;-44
2022/05/18 09:57:19;;;;;;;7.30;6.70;;;;;;;;;;5068889;28;24853;-45
2022/05/18 09:59:57;;;;;;;7.22;6.53;;;;;;;;;;5069041;28;24759;-45
2022/05/18 10:07:53;;;;;;;6.95;6.35;;;;;;;;;;5079133;28;24538;-45
2022/05/18 10:10:23;;;;;;;6.50;6.00;;;;;;;;;;5089012;28;24462;-44
2022/05/18 10:12:59;;;;;;;7.72;6.30;;;;;;;;;;5088715;28;24440;-45
2022/05/18 10:15:24;;;;;;;8.00;7.10;;;;;;;;;;5089032;28;24451;-45
2022/05/18 10:17:51;;;;;;;8.10;7.40;;;;;;;;;;5084363;28;24418;-45
2022/05/18 10:20:25;;;;;;;7.28;6.68;;;;;;;;;;5088604;28;24474;-45
2022/05/18 10:22:51;;;;;;;7.60;6.90;;;;;;;;;;5088188;28;24390;-45
2022/05/18 10:25:32;;;;;;;7.93;7.22;;;;;;;;;;5072481;28;24414;-44
2022/05/18 10:27:57;;;;;;;8.07;7.37;;;;;;;;;;5067700;28;24422;-45
2022/05/18 10:30:28;;;;;;;8.07;7.37;;;;;;;;;;5066553;28;24786;-45
2022/05/18 10:32:53;;;;;;;8.30;7.50;;;;;;;;;;5066162;28;24488;-45
2022/05/18 10:35:39;;;;;;;7.88;7.25;;;;;;;;;;5067965;28;24387;-45
2022/05/18 10:38:15;;;;;;;8.10;7.30;;;;;;;;;;5055351;28;24415;-45
2022/05/18 10:40:40;;;;;;;7.80;7.20;;;;;;;;;;5067670;28;24920;-45
2022/05/18 10:43:18;;;;;;;8.80;8.00;;;;;;;;;;5067525;28;24500;-45
2022/05/18 10:45:52;;;;;;;8.80;8.00;;;;;;;;;;5068513;28;24990;-45
2022/05/18 10:48:18;;;;;;;8.65;7.80;;;;;;;;;;5087733;28;25154;-45
2022/05/18 10:50:45;;;;;;;9.07;8.33;;;;;;;;;;5087889;28;24399;-45
2022/05/18 10:53:13;;;;;;;8.45;7.75;;;;;;;;;;5085049;28;24445;-45
2022/05/18 10:55:51;;;;;;;8.15;7.45;;;;;;;;;;5085554;28;24513;-45
2022/05/18 10:58:30;;;;;;;9.80;8.90;;;;;;;;;;5087274;28;24463;-45
2022/05/18 11:00:58;;;;;;;10.00;9.20;;;;;;;;;;5087259;28;24946;-46
2022/05/18 11:03:32;;;;;;;9.27;8.48;;;;;;;;;;5087493;28;24690;-45
2022/05/18 11:06:01;;;;;;;9.10;8.38;;;;;;;;;;5067133;28;24418;-46
2022/05/18 11:08:30;;;;;;;9.20;8.40;;;;;;;;;;5067320;28;24422;-46
2022/05/18 11:11:00;;;;;;;9.20;8.50;;;;;;;;;;5067339;28;24741;-46
2022/05/18 11:13:40;;;;;;;9.23;8.35;;;;;;;;;;5067069;28;24971;-46
2022/05/18 11:16:23;;;;;;;8.40;7.70;;;;;;;;;;5068840;28;24467;-46
2022/05/18 11:18:54;;;;;;;9.20;8.40;;;;;;;;;;5066586;28;24477;-46
2022/05/18 11:21:19;;;;;;;9.52;8.73;;;;;;;;;;5067110;28;24410;-45
2022/05/18 11:24:03;;;;;;;11.13;10.23;;;;;;;;;;5066805;28;24395;-46
2022/05/18 11:26:41;;;;;;;9.43;8.63;;;;;;;;;;5079507;28;24434;-46
2022/05/18 11:29:25;;;;;;;10.10;9.20;;;;;;;;;;5087342;28;24397;-45
2022/05/18 11:32:07;;;;;;;9.82;8.93;;;;;;;;;;5086973;28;24540;-45
2022/05/18 11:34:57;;;;;;;9.50;8.70;;;;;;;;;;5087046;28;24439;-46
2022/05/18 11:37:24;;;;;;;8.70;8.00;;;;;;;;;;5082161;28;21208;-45
2022/05/18 11:39:55;;;;;;;11.68;8.80;;;;;;;;;;5087440;28;24879;-45
2022/05/18 11:42:30;;;;;;;9.20;8.40;;;;;;;;;;5087023;28;24385;-45
2022/05/18 11:45:02;;;;;;;9.40;8.80;;;;;;;;;;5086755;28;24403;-46
2022/05/18 11:47:27;;;;;;;8.27;7.67;;;;;;;;;;5071460;28;24995;-45
2022/05/18 11:50:01;;;;;;;8.80;8.10;;;;;;;;;;5066016;28;25288;-45
2022/05/18 11:52:33;;;;;;;9.75;8.85;;;;;;;;;;5066285;28;24423;-45
2022/05/18 11:55:02;;;;;;;11.50;10.50;;;;;;;;;;5066082;28;24490;-46
2022/05/18 11:57:53;;;;;;;9.40;8.70;;;;;;;;;;5066809;28;24502;-45
2022/05/18 12:03:19;;;;;;;9.50;8.80;;;;;;;;;;5066795;28;24860;-46
2022/05/18 12:05:56;;;;;;;9.38;8.68;;;;;;;;;;5066470;28;24470;-46
2022/05/18 12:08:30;;;;;;;9.40;8.70;;;;;;;;;;5066266;28;24379;-46
2022/05/18 12:11:01;;;;;;;10.25;9.35;;;;;;;;;;5067322;28;25247;-46
2022/05/18 12:13:46;;;;;;;10.60;9.48;;;;;;;;;;5070145;28;24431;-46
2022/05/18 12:16:17;;;;;;;9.63;8.80;;;;;;;;;;5067138;28;24426;-45
2022/05/18 12:18:54;;;;;;;10.55;9.70;;;;;;;;;;5069362;28;24517;-46
2022/05/18 12:21:22;;;;;;;9.57;8.88;;;;;;;;;;5070428;28;24956;-45
2022/05/18 12:23:54;;;;;;;9.38;8.68;;;;;;;;;;5083621;28;25023;-46
2022/05/18 12:26:21;;;;;;;9.52;8.73;;;;;;;;;;5090793;28;24408;-46
2022/05/18 12:28:46;;;;;;;8.70;8.00;;;;;;;;;;5078271;28;24395;-45
2022/05/18 12:31:12;;;;;;;8.80;8.20;;;;;;;;;;5070364;28;24488;-44
2022/05/18 12:33:45;;;;;;;9.00;8.30;;;;;;;;;;5069910;28;24469;-45
2022/05/18 12:36:24;;;;;;;8.45;7.85;;;;;;;;;;5071669;28;24766;-44
2022/05/18 12:38:57;;;;;;;8.70;8.00;;;;;;;;;;5058709;28;24449;-44
2022/05/18 12:41:27;;;;;;;9.90;9.00;;;;;;;;;;5081104;28;24402;-44
2022/05/18 12:44:06;;;;;;;10.55;9.65;;;;;;;;;;5072424;28;24472;-44
2022/05/18 12:46:33;;;;;;;9.20;8.40;;;;;;;;;;5069820;28;24401;-43
2022/05/18 12:48:59;;;;;;;10.50;9.60;;;;;;;;;;5067912;28;24430;-44
2022/05/18 12:51:28;;;;;;;10.10;9.20;;;;;;;;;;5069741;28;24763;-44
2022/05/18 12:54:03;;;;;;;10.18;9.35;;;;;;;;;;5069803;28;24414;-45
2022/05/18 12:56:47;;;;;;;10.40;9.50;;;;;;;;;;5049565;28;24454;-44
2022/05/18 12:59:16;;;;;;;10.50;9.60;;;;;;;;;;5049637;28;24398;-45
2022/05/18 13:01:42;;;;;;;10.20;9.40;;;;;;;;;;5051649;28;24449;-44
2022/05/18 13:04:08;;;;;;;9.30;8.60;;;;;;;;;;5069714;28;24532;-44
2022/05/18 13:06:33;;;;;;;9.23;8.52;;;;;;;;;;5069656;28;24516;-44
2022/05/18 13:09:16;;;;;;;9.57;8.68;;;;;;;;;;5067647;28;24479;-44
2022/05/18 13:11:46;;;;;;;8.70;7.90;;;;;;;;;;5069734;28;24391;-45
2022/05/18 13:14:17;;;;;;;8.57;7.97;;;;;;;;;;5069004;28;24749;-44
2022/05/18 13:16:49;;;;;;;8.70;8.00;;;;;;;;;;5075249;28;24562;-44
2022/05/18 13:19:14;;;;;;;10.75;9.75;;;;;;;;;;5076911;28;24984;-44
2022/05/18 13:21:46;;;;;;;9.17;8.47;;;;;;;;;;5067391;28;24472;-44
2022/05/18 13:24:17;;;;;;;9.30;8.60;;;;;;;;;;5068469;28;24427;-44
2022/05/18 13:26:44;;;;;;;8.15;7.55;;;;;;;;;;5069644;28;24459;-46
2022/05/18 13:29:15;;;;;;;8.73;7.93;;;;;;;;;;5067255;28;24475;-44
2022/05/18 13:31:41;;;;;;;8.40;7.70;;;;;;;;;;5078579;28;25017;-44
2022/05/18 13:34:12;;;;;;;8.40;7.70;;;;;;;;;;5069182;28;24567;-44
2022/05/18 13:36:43;;;;;;;8.50;7.80;;;;;;;;;;5079108;28;24445;-44
2022/05/18 13:39:10;;;;;;;6.72;6.22;;;;;;;;;;5068551;28;25002;-44
2022/05/18 13:41:35;;;;;;;8.40;7.60;;;;;;;;;;5069744;28;25129;-44
2022/05/18 13:44:02;;;;;;;7.60;7.00;;;;;;;;;;5068168;28;24779;-45
2022/05/18 13:46:28;;;;;;;8.25;7.65;;;;;;;;;;5069345;28;24433;-44
2022/05/18 13:49:07;;;;;;;8.30;7.60;;;;;;;;;;5084832;28;24418;-44
2022/05/18 13:51:37;;;;;;;7.40;6.80;;;;;;;;;;5070091;28;24433;-44
2022/05/18 13:54:05;;;;;;;8.15;7.47;;;;;;;;;;5067840;28;24414;-44
2022/05/18 13:56:31;;;;;;;7.87;7.27;;;;;;;;;;5067054;28;24422;-44
2022/05/18 13:59:01;;;;;;;7.20;6.70;;;;;;;;;;5068701;28;24533;-44
2022/05/18 14:01:33;;;;;;;6.78;6.22;;;;;;;;;;5067662;28;24936;-44
2022/05/18 14:03:58;;;;;;;7.18;6.60;;;;;;;;;;5068090;28;24402;-44
2022/05/18 14:06:24;;;;;;;7.07;6.40;;;;;;;;;;5085302;28;24475;-44
2022/05/18 14:08:51;;;;;;;7.90;7.10;;;;;;;;;;5088108;28;24543;-43
2022/05/18 14:11:17;;;;;;;7.68;7.10;;;;;;;;;;5088701;28;24850;-44
2022/05/18 14:13:44;;;;;;;7.45;6.35;;;;;;;;;;5088388;28;24402;-44
2022/05/18 14:16:15;;;;;;;7.07;6.50;;;;;;;;;;5086294;28;25247;-45
2022/05/18 14:18:43;;;;;;;7.47;6.78;;;;;;;;;;5082613;28;24765;-44
2022/05/18 14:21:11;;;;;;;7.75;7.13;;;;;;;;;;5067957;28;24404;-44
2022/05/18 14:23:38;;;;;;;7.50;7.00;;;;;;;;;;5065758;28;24572;-45
2022/05/18 14:26:05;;;;;;;7.28;6.68;;;;;;;;;;5069670;28;24852;-44
2022/05/18 14:28:38;;;;;;;6.65;6.15;;;;;;;;;;5048033;28;24387;-45
2022/05/18 14:31:04;;;;;;;7.35;6.70;;;;;;;;;;5047745;28;24423;-45
2022/05/18 14:33:36;;;;;;;6.60;6.10;;;;;;;;;;5047924;28;24470;-45
2022/05/18 14:36:04;;;;;;;7.13;6.57;;;;;;;;;;5047809;28;24391;-45
2022/05/18 14:38:31;;;;;;;7.50;6.80;;;;;;;;;;5067602;28;24859;-45
2022/05/18 14:40:58;;;;;;;7.65;6.95;;;;;;;;;;5067543;28;24464;-45
2022/05/18 14:43:27;;;;;;;7.80;7.20;;;;;;;;;;5067930;28;24583;-45
2022/05/18 14:46:00;;;;;;;7.57;6.97;;;;;;;;;;5067740;28;24460;-45
2022/05/18 14:48:27;;;;;;;7.63;7.03;;;;;;;;;;5072427;28;24418;-45
2022/05/18 14:51:06;;;;;;;7.57;6.97;;;;;;;;;;5087787;28;24393;-45
2022/05/18 14:53:31;;;;;;;6.82;6.22;;;;;;;;;;5087573;28;24465;-45
2022/05/18 14:56:04;;;;;;;7.70;7.10;;;;;;;;;;5087800;28;24425;-45
2022/05/18 14:58:31;;;;;;;6.47;5.97;;;;;;;;;;5075275;28;25073;-45
2022/05/18 15:01:00;;;;;;;6.70;6.10;;;;;;;;;;5067014;28;24606;-45